Terminal Aerodrome Forecast
Issued by NWS Wakefield, VA

Home | Current Version | Previous Version | Text Only | Print | Product List | Glossary On
Versions: 1 2 3 4 5 6 7 8 9 10 11 12 13 14 15 16 17 18
834
FTUS41 KAKQ 180048 AAA
TAFSBY
TAF AMD
KSBY 180048Z 1801/1824 36005KT 3SM RA BR BKN006 OVC028
      TEMPO 1801/1803 1SM RA BR OVC006
     FM180400 35004KT 2SM -RA BR OVC007
     FM180600 30004KT P6SM VCSH OVC015
     FM180900 28008KT P6SM BKN035
     FM181200 32008KT P6SM SCT035
     FM182100 32004KT P6SM SKC=

USA.gov is the U.S. government's official web portal to all federal, state and local government web resources and services.